sensor_id;sensor_type;location;lat;lon;timestamp;P1;durP1;ratioP1;P2;durP2;ratioP2
80625;SDS011;69982;51.758;5.784;2023-07-02T00:02:06;14.50;;;5.00;;
80625;SDS011;69982;51.758;5.784;2023-07-02T00:04:32;10.50;;;4.00;;
80625;SDS011;69982;51.758;5.784;2023-07-02T00:06:59;12.90;;;4.60;;
80625;SDS011;69982;51.758;5.784;2023-07-02T00:09:25;13.30;;;4.50;;
80625;SDS011;69982;51.758;5.784;2023-07-02T00:11:52;14.40;;;4.50;;
80625;SDS011;69982;51.758;5.784;2023-07-02T00:14:18;12.90;;;4.00;;
80625;SDS011;69982;51.758;5.784;2023-07-02T00:16:45;14.10;;;5.00;;
80625;SDS011;69982;51.758;5.784;2023-07-02T00:19:13;13.40;;;4.70;;
80625;SDS011;69982;51.758;5.784;2023-07-02T00:21:40;16.10;;;5.10;;
80625;SDS011;69982;51.758;5.784;2023-07-02T00:24:07;13.00;;;4.50;;
80625;SDS011;69982;51.758;5.784;2023-07-02T00:26:35;16.20;;;5.70;;
80625;SDS011;69982;51.758;5.784;2023-07-02T00:29:05;11.40;;;4.80;;
80625;SDS011;69982;51.758;5.784;2023-07-02T00:31:32;18.20;;;5.70;;
80625;SDS011;69982;51.758;5.784;2023-07-02T00:33:59;17.70;;;5.60;;
80625;SDS011;69982;51.758;5.784;2023-07-02T00:36:29;15.20;;;5.60;;
80625;SDS011;69982;51.758;5.784;2023-07-02T00:38:56;18.20;;;6.10;;
80625;SDS011;69982;51.758;5.784;2023-07-02T00:41:23;17.00;;;6.00;;
80625;SDS011;69982;51.758;5.784;2023-07-02T00:43:50;16.80;;;5.40;;
80625;SDS011;69982;51.758;5.784;2023-07-02T00:46:20;17.60;;;5.20;;
80625;SDS011;69982;51.758;5.784;2023-07-02T00:48:49;16.80;;;5.80;;
80625;SDS011;69982;51.758;5.784;2023-07-02T00:51:21;14.50;;;5.70;;
80625;SDS011;69982;51.758;5.784;2023-07-02T00:53:53;19.00;;;6.30;;
80625;SDS011;69982;51.758;5.784;2023-07-02T00:56:22;15.60;;;5.70;;
80625;SDS011;69982;51.758;5.784;2023-07-02T00:58:51;18.30;;;6.40;;
80625;SDS011;69982;51.758;5.784;2023-07-02T01:01:20;22.40;;;7.30;;
80625;SDS011;69982;51.758;5.784;2023-07-02T01:03:51;18.60;;;6.30;;
80625;SDS011;69982;51.758;5.784;2023-07-02T01:08:59;18.20;;;6.60;;
80625;SDS011;69982;51.758;5.784;2023-07-02T01:11:27;19.30;;;6.70;;
80625;SDS011;69982;51.758;5.784;2023-07-02T01:14:08;18.60;;;7.00;;
80625;SDS011;69982;51.758;5.784;2023-07-02T01:16:37;15.50;;;5.60;;
80625;SDS011;69982;51.758;5.784;2023-07-02T01:19:11;16.50;;;4.60;;
80625;SDS011;69982;51.758;5.784;2023-07-02T01:21:45;9.90;;;2.90;;
80625;SDS011;69982;51.758;5.784;2023-07-02T01:24:13;16.80;;;4.90;;
80625;SDS011;69982;51.758;5.784;2023-07-02T01:26:40;14.30;;;4.60;;
80625;SDS011;69982;51.758;5.784;2023-07-02T01:29:13;12.30;;;3.80;;
80625;SDS011;69982;51.758;5.784;2023-07-02T01:31:43;16.00;;;4.00;;
80625;SDS011;69982;51.758;5.784;2023-07-02T01:34:10;14.50;;;4.50;;
80625;SDS011;69982;51.758;5.784;2023-07-02T01:36:37;13.80;;;4.10;;
80625;SDS011;69982;51.758;5.784;2023-07-02T01:39:04;13.40;;;3.90;;
80625;SDS011;69982;51.758;5.784;2023-07-02T01:41:44;12.10;;;4.00;;
80625;SDS011;69982;51.758;5.784;2023-07-02T01:44:15;14.40;;;4.00;;
80625;SDS011;69982;51.758;5.784;2023-07-02T01:46:42;12.40;;;3.80;;
80625;SDS011;69982;51.758;5.784;2023-07-02T01:49:08;14.40;;;4.40;;
80625;SDS011;69982;51.758;5.784;2023-07-02T01:51:35;14.90;;;4.70;;
80625;SDS011;69982;51.758;5.784;2023-07-02T01:54:02;13.90;;;4.10;;
80625;SDS011;69982;51.758;5.784;2023-07-02T01:56:28;17.40;;;4.40;;
80625;SDS011;69982;51.758;5.784;2023-07-02T01:58:55;12.70;;;4.40;;
80625;SDS011;69982;51.758;5.784;2023-07-02T02:01:21;16.30;;;4.20;;
80625;SDS011;69982;51.758;5.784;2023-07-02T02:03:48;13.00;;;4.60;;
80625;SDS011;69982;51.758;5.784;2023-07-02T02:06:15;14.80;;;4.00;;
80625;SDS011;69982;51.758;5.784;2023-07-02T02:08:41;13.80;;;4.20;;
80625;SDS011;69982;51.758;5.784;2023-07-02T02:11:07;15.00;;;4.10;;
80625;SDS011;69982;51.758;5.784;2023-07-02T02:13:34;14.60;;;3.90;;
80625;SDS011;69982;51.758;5.784;2023-07-02T02:16:01;11.20;;;4.10;;
80625;SDS011;69982;51.758;5.784;2023-07-02T02:18:27;11.30;;;4.40;;
80625;SDS011;69982;51.758;5.784;2023-07-02T02:20:54;15.80;;;4.40;;
80625;SDS011;69982;51.758;5.784;2023-07-02T02:23:20;15.50;;;4.80;;
80625;SDS011;69982;51.758;5.784;2023-07-02T02:25:47;13.90;;;4.30;;
80625;SDS011;69982;51.758;5.784;2023-07-02T02:28:13;9.60;;;4.00;;
80625;SDS011;69982;51.758;5.784;2023-07-02T02:30:40;13.30;;;4.60;;
80625;SDS011;69982;51.758;5.784;2023-07-02T02:33:06;15.50;;;4.30;;
80625;SDS011;69982;51.758;5.784;2023-07-02T02:35:33;13.60;;;4.10;;
80625;SDS011;69982;51.758;5.784;2023-07-02T02:38:03;13.20;;;4.30;;
80625;SDS011;69982;51.758;5.784;2023-07-02T02:40:33;13.20;;;4.40;;
80625;SDS011;69982;51.758;5.784;2023-07-02T02:43:00;14.70;;;4.40;;
80625;SDS011;69982;51.758;5.784;2023-07-02T02:45:27;14.80;;;4.50;;
80625;SDS011;69982;51.758;5.784;2023-07-02T02:47:53;14.70;;;4.20;;
80625;SDS011;69982;51.758;5.784;2023-07-02T02:50:20;12.70;;;4.40;;
80625;SDS011;69982;51.758;5.784;2023-07-02T02:52:47;15.30;;;5.20;;
80625;SDS011;69982;51.758;5.784;2023-07-02T02:55:13;12.00;;;4.20;;
80625;SDS011;69982;51.758;5.784;2023-07-02T02:57:40;13.70;;;4.70;;
80625;SDS011;69982;51.758;5.784;2023-07-02T03:00:06;17.80;;;5.00;;
80625;SDS011;69982;51.758;5.784;2023-07-02T03:02:33;14.70;;;4.80;;
80625;SDS011;69982;51.758;5.784;2023-07-02T03:05:00;16.60;;;5.40;;
80625;SDS011;69982;51.758;5.784;2023-07-02T03:07:29;18.80;;;6.60;;
80625;SDS011;69982;51.758;5.784;2023-07-02T03:09:56;18.10;;;5.70;;
80625;SDS011;69982;51.758;5.784;2023-07-02T03:12:22;19.30;;;6.60;;
80625;SDS011;69982;51.758;5.784;2023-07-02T03:14:50;19.00;;;7.00;;
80625;SDS011;69982;51.758;5.784;2023-07-02T03:17:19;21.30;;;7.40;;
80625;SDS011;69982;51.758;5.784;2023-07-02T03:19:46;20.20;;;7.30;;
80625;SDS011;69982;51.758;5.784;2023-07-02T03:22:13;19.60;;;7.30;;
80625;SDS011;69982;51.758;5.784;2023-07-02T03:24:39;20.70;;;8.00;;
80625;SDS011;69982;51.758;5.784;2023-07-02T03:27:06;22.80;;;8.40;;
80625;SDS011;69982;51.758;5.784;2023-07-02T03:29:33;22.30;;;6.80;;
80625;SDS011;69982;51.758;5.784;2023-07-02T03:32:01;19.70;;;6.50;;
80625;SDS011;69982;51.758;5.784;2023-07-02T03:34:28;19.70;;;7.40;;
80625;SDS011;69982;51.758;5.784;2023-07-02T03:36:54;21.90;;;7.80;;
80625;SDS011;69982;51.758;5.784;2023-07-02T03:39:20;21.70;;;8.40;;
80625;SDS011;69982;51.758;5.784;2023-07-02T03:41:47;18.50;;;7.90;;
80625;SDS011;69982;51.758;5.784;2023-07-02T03:44:13;23.80;;;7.40;;
80625;SDS011;69982;51.758;5.784;2023-07-02T03:46:39;21.00;;;7.70;;
80625;SDS011;69982;51.758;5.784;2023-07-02T03:49:06;23.00;;;7.90;;
80625;SDS011;69982;51.758;5.784;2023-07-02T03:51:32;19.70;;;7.20;;
80625;SDS011;69982;51.758;5.784;2023-07-02T04:54:30;14.20;;;5.60;;
80625;SDS011;69982;51.758;5.784;2023-07-02T04:56:58;16.60;;;6.00;;
80625;SDS011;69982;51.758;5.784;2023-07-02T04:59:24;18.10;;;6.40;;
80625;SDS011;69982;51.758;5.784;2023-07-02T05:01:51;19.70;;;7.10;;
80625;SDS011;69982;51.758;5.784;2023-07-02T05:04:17;20.10;;;6.50;;
80625;SDS011;69982;51.758;5.784;2023-07-02T05:06:44;18.10;;;6.60;;
80625;SDS011;69982;51.758;5.784;2023-07-02T05:09:10;17.30;;;6.10;;
80625;SDS011;69982;51.758;5.784;2023-07-02T05:11:36;19.50;;;7.00;;
80625;SDS011;69982;51.758;5.784;2023-07-02T05:14:02;16.10;;;5.70;;
80625;SDS011;69982;51.758;5.784;2023-07-02T05:16:29;15.30;;;6.30;;
80625;SDS011;69982;51.758;5.784;2023-07-02T05:18:55;19.30;;;6.20;;
80625;SDS011;69982;51.758;5.784;2023-07-02T05:21:22;18.60;;;6.40;;
80625;SDS011;69982;51.758;5.784;2023-07-02T05:23:48;18.30;;;5.60;;
80625;SDS011;69982;51.758;5.784;2023-07-02T05:26:15;23.10;;;6.40;;
80625;SDS011;69982;51.758;5.784;2023-07-02T05:28:41;18.20;;;6.40;;
80625;SDS011;69982;51.758;5.784;2023-07-02T05:31:08;21.00;;;6.20;;
80625;SDS011;69982;51.758;5.784;2023-07-02T05:33:34;17.50;;;5.20;;
80625;SDS011;69982;51.758;5.784;2023-07-02T05:36:00;18.40;;;6.20;;
80625;SDS011;69982;51.758;5.784;2023-07-02T05:38:27;20.20;;;5.40;;
80625;SDS011;69982;51.758;5.784;2023-07-02T05:40:54;14.90;;;5.20;;
80625;SDS011;69982;51.758;5.784;2023-07-02T05:43:21;19.30;;;6.40;;
80625;SDS011;69982;51.758;5.784;2023-07-02T05:45:47;18.40;;;5.70;;
80625;SDS011;69982;51.758;5.784;2023-07-02T05:48:16;22.30;;;6.20;;
80625;SDS011;69982;51.758;5.784;2023-07-02T05:50:43;19.20;;;6.40;;
80625;SDS011;69982;51.758;5.784;2023-07-02T05:53:10;19.90;;;6.00;;
80625;SDS011;69982;51.758;5.784;2023-07-02T05:55:37;18.20;;;5.50;;
80625;SDS011;69982;51.758;5.784;2023-07-02T06:00:32;21.10;;;5.30;;
80625;SDS011;69982;51.758;5.784;2023-07-02T06:02:58;13.80;;;5.40;;
80625;SDS011;69982;51.758;5.784;2023-07-02T06:05:25;19.30;;;5.10;;
80625;SDS011;69982;51.758;5.784;2023-07-02T06:07:51;17.50;;;4.70;;
80625;SDS011;69982;51.758;5.784;2023-07-02T06:10:18;18.80;;;5.30;;
80625;SDS011;69982;51.758;5.784;2023-07-02T06:12:45;19.60;;;5.30;;
80625;SDS011;69982;51.758;5.784;2023-07-02T06:15:11;14.20;;;4.30;;
80625;SDS011;69982;51.758;5.784;2023-07-02T06:17:38;16.20;;;4.60;;
80625;SDS011;69982;51.758;5.784;2023-07-02T06:20:05;15.20;;;5.70;;
80625;SDS011;69982;51.758;5.784;2023-07-02T06:22:34;16.20;;;4.70;;
80625;SDS011;69982;51.758;5.784;2023-07-02T06:25:01;19.50;;;5.50;;
80625;SDS011;69982;51.758;5.784;2023-07-02T06:27:29;18.00;;;5.30;;
80625;SDS011;69982;51.758;5.784;2023-07-02T06:29:55;20.00;;;5.70;;
80625;SDS011;69982;51.758;5.784;2023-07-02T06:32:22;18.70;;;5.20;;
80625;SDS011;69982;51.758;5.784;2023-07-02T06:37:16;16.50;;;5.10;;
80625;SDS011;69982;51.758;5.784;2023-07-02T06:39:43;17.50;;;4.90;;
80625;SDS011;69982;51.758;5.784;2023-07-02T06:42:10;16.50;;;4.90;;
80625;SDS011;69982;51.758;5.784;2023-07-02T06:44:36;21.90;;;5.00;;
80625;SDS011;69982;51.758;5.784;2023-07-02T06:47:03;19.00;;;5.20;;
80625;SDS011;69982;51.758;5.784;2023-07-02T06:49:30;16.50;;;5.20;;
80625;SDS011;69982;51.758;5.784;2023-07-02T06:51:56;19.40;;;5.00;;
80625;SDS011;69982;51.758;5.784;2023-07-02T06:54:23;16.10;;;5.10;;
80625;SDS011;69982;51.758;5.784;2023-07-02T06:56:51;17.40;;;5.00;;
80625;SDS011;69982;51.758;5.784;2023-07-02T06:59:21;18.20;;;5.10;;
80625;SDS011;69982;51.758;5.784;2023-07-02T07:01:49;18.50;;;4.30;;
80625;SDS011;69982;51.758;5.784;2023-07-02T07:04:16;16.40;;;3.90;;
80625;SDS011;69982;51.758;5.784;2023-07-02T07:06:43;12.50;;;3.70;;
80625;SDS011;69982;51.758;5.784;2023-07-02T07:09:09;17.80;;;4.70;;
80625;SDS011;69982;51.758;5.784;2023-07-02T07:11:36;14.50;;;4.10;;
80625;SDS011;69982;51.758;5.784;2023-07-02T07:14:02;15.80;;;4.30;;
80625;SDS011;69982;51.758;5.784;2023-07-02T07:16:29;18.10;;;4.40;;
80625;SDS011;69982;51.758;5.784;2023-07-02T07:18:56;14.60;;;4.60;;
80625;SDS011;69982;51.758;5.784;2023-07-02T07:21:22;19.20;;;5.10;;
80625;SDS011;69982;51.758;5.784;2023-07-02T07:23:49;15.30;;;4.10;;
80625;SDS011;69982;51.758;5.784;2023-07-02T07:26:15;11.30;;;4.20;;
80625;SDS011;69982;51.758;5.784;2023-07-02T07:28:42;13.40;;;4.00;;
80625;SDS011;69982;51.758;5.784;2023-07-02T07:31:09;13.50;;;3.90;;
80625;SDS011;69982;51.758;5.784;2023-07-02T07:33:35;11.00;;;3.60;;
80625;SDS011;69982;51.758;5.784;2023-07-02T07:36:01;13.30;;;3.40;;
80625;SDS011;69982;51.758;5.784;2023-07-02T07:38:28;17.70;;;4.50;;
80625;SDS011;69982;51.758;5.784;2023-07-02T07:40:54;14.20;;;3.60;;
80625;SDS011;69982;51.758;5.784;2023-07-02T07:43:21;11.00;;;3.70;;
80625;SDS011;69982;51.758;5.784;2023-07-02T07:45:47;14.60;;;4.70;;
80625;SDS011;69982;51.758;5.784;2023-07-02T07:48:14;17.10;;;4.30;;
80625;SDS011;69982;51.758;5.784;2023-07-02T07:50:41;10.20;;;4.10;;
80625;SDS011;69982;51.758;5.784;2023-07-02T07:53:08;10.70;;;3.10;;
80625;SDS011;69982;51.758;5.784;2023-07-02T07:55:34;15.00;;;4.20;;
80625;SDS011;69982;51.758;5.784;2023-07-02T07:58:00;14.50;;;3.80;;
80625;SDS011;69982;51.758;5.784;2023-07-02T08:00:27;11.70;;;3.80;;
80625;SDS011;69982;51.758;5.784;2023-07-02T08:02:54;11.20;;;3.80;;
80625;SDS011;69982;51.758;5.784;2023-07-02T08:05:21;10.10;;;3.20;;
80625;SDS011;69982;51.758;5.784;2023-07-02T08:07:50;11.30;;;3.50;;
80625;SDS011;69982;51.758;5.784;2023-07-02T08:10:16;12.30;;;3.10;;
80625;SDS011;69982;51.758;5.784;2023-07-02T08:12:42;11.70;;;3.40;;
80625;SDS011;69982;51.758;5.784;2023-07-02T08:15:09;13.20;;;3.80;;
80625;SDS011;69982;51.758;5.784;2023-07-02T08:17:36;12.40;;;3.30;;
80625;SDS011;69982;51.758;5.784;2023-07-02T08:20:03;13.60;;;3.70;;
80625;SDS011;69982;51.758;5.784;2023-07-02T08:22:30;14.90;;;3.70;;
80625;SDS011;69982;51.758;5.784;2023-07-02T08:24:56;13.10;;;4.00;;
80625;SDS011;69982;51.758;5.784;2023-07-02T08:27:23;11.20;;;3.70;;
80625;SDS011;69982;51.758;5.784;2023-07-02T08:29:50;12.80;;;3.80;;
80625;SDS011;69982;51.758;5.784;2023-07-02T08:32:16;12.80;;;3.80;;
80625;SDS011;69982;51.758;5.784;2023-07-02T08:34:43;12.70;;;3.30;;
80625;SDS011;69982;51.758;5.784;2023-07-02T08:37:09;13.60;;;3.60;;
80625;SDS011;69982;51.758;5.784;2023-07-02T08:39:37;11.30;;;3.50;;
80625;SDS011;69982;51.758;5.784;2023-07-02T08:42:06;14.10;;;3.60;;
80625;SDS011;69982;51.758;5.784;2023-07-02T08:44:33;10.70;;;3.50;;
80625;SDS011;69982;51.758;5.784;2023-07-02T08:46:59;14.40;;;3.60;;
80625;SDS011;69982;51.758;5.784;2023-07-02T08:49:26;12.30;;;2.90;;
80625;SDS011;69982;51.758;5.784;2023-07-02T08:51:52;12.40;;;3.30;;
80625;SDS011;69982;51.758;5.784;2023-07-02T08:54:19;14.70;;;3.60;;
80625;SDS011;69982;51.758;5.784;2023-07-02T08:56:46;11.50;;;3.00;;
80625;SDS011;69982;51.758;5.784;2023-07-02T08:59:12;10.90;;;3.40;;
80625;SDS011;69982;51.758;5.784;2023-07-02T09:01:49;11.20;;;2.60;;
80625;SDS011;69982;51.758;5.784;2023-07-02T09:04:20;8.20;;;2.50;;
80625;SDS011;69982;51.758;5.784;2023-07-02T09:06:51;12.10;;;3.50;;
80625;SDS011;69982;51.758;5.784;2023-07-02T09:09:29;10.50;;;3.00;;
80625;SDS011;69982;51.758;5.784;2023-07-02T09:11:56;13.70;;;3.60;;
80625;SDS011;69982;51.758;5.784;2023-07-02T09:14:29;9.90;;;3.10;;
80625;SDS011;69982;51.758;5.784;2023-07-02T09:17:06;7.70;;;3.20;;
80625;SDS011;69982;51.758;5.784;2023-07-02T09:19:35;12.20;;;3.20;;
80625;SDS011;69982;51.758;5.784;2023-07-02T09:22:02;10.70;;;3.30;;
80625;SDS011;69982;51.758;5.784;2023-07-02T09:24:31;10.80;;;3.00;;
80625;SDS011;69982;51.758;5.784;2023-07-02T09:26:58;13.50;;;3.50;;
80625;SDS011;69982;51.758;5.784;2023-07-02T09:29:27;12.10;;;2.90;;
80625;SDS011;69982;51.758;5.784;2023-07-02T09:31:59;10.50;;;3.60;;
80625;SDS011;69982;51.758;5.784;2023-07-02T09:34:34;9.90;;;3.30;;
80625;SDS011;69982;51.758;5.784;2023-07-02T09:37:02;12.00;;;3.90;;
80625;SDS011;69982;51.758;5.784;2023-07-02T09:39:31;7.50;;;2.50;;
80625;SDS011;69982;51.758;5.784;2023-07-02T09:42:00;12.80;;;3.40;;
80625;SDS011;69982;51.758;5.784;2023-07-02T09:44:29;9.00;;;3.20;;
80625;SDS011;69982;51.758;5.784;2023-07-02T09:46:58;12.70;;;3.90;;
80625;SDS011;69982;51.758;5.784;2023-07-02T09:49:32;11.70;;;3.20;;
80625;SDS011;69982;51.758;5.784;2023-07-02T09:52:00;10.60;;;3.50;;
80625;SDS011;69982;51.758;5.784;2023-07-02T09:54:29;10.10;;;3.30;;
80625;SDS011;69982;51.758;5.784;2023-07-02T09:56:57;12.50;;;3.70;;
80625;SDS011;69982;51.758;5.784;2023-07-02T09:59:24;12.40;;;3.20;;
80625;SDS011;69982;51.758;5.784;2023-07-02T10:01:52;12.30;;;2.60;;
80625;SDS011;69982;51.758;5.784;2023-07-02T10:04:19;11.70;;;2.90;;
80625;SDS011;69982;51.758;5.784;2023-07-02T10:09:20;11.30;;;3.60;;
80625;SDS011;69982;51.758;5.784;2023-07-02T10:12:00;12.00;;;3.00;;
80625;SDS011;69982;51.758;5.784;2023-07-02T10:14:27;9.30;;;2.90;;
80625;SDS011;69982;51.758;5.784;2023-07-02T10:16:54;9.50;;;2.50;;
80625;SDS011;69982;51.758;5.784;2023-07-02T10:19:22;11.40;;;3.10;;
80625;SDS011;69982;51.758;5.784;2023-07-02T10:22:01;8.70;;;2.60;;
80625;SDS011;69982;51.758;5.784;2023-07-02T10:24:29;7.70;;;2.40;;
80625;SDS011;69982;51.758;5.784;2023-07-02T10:26:59;14.00;;;3.60;;
80625;SDS011;69982;51.758;5.784;2023-07-02T10:29:29;8.60;;;3.50;;
80625;SDS011;69982;51.758;5.784;2023-07-02T10:31:56;7.00;;;2.40;;
80625;SDS011;69982;51.758;5.784;2023-07-02T10:34:36;11.30;;;3.30;;
80625;SDS011;69982;51.758;5.784;2023-07-02T10:37:03;10.60;;;3.30;;
80625;SDS011;69982;51.758;5.784;2023-07-02T10:39:30;10.20;;;3.10;;
80625;SDS011;69982;51.758;5.784;2023-07-02T10:42:06;7.00;;;2.70;;
80625;SDS011;69982;51.758;5.784;2023-07-02T10:44:34;12.30;;;3.50;;
80625;SDS011;69982;51.758;5.784;2023-07-02T10:47:12;10.20;;;3.10;;
80625;SDS011;69982;51.758;5.784;2023-07-02T10:49:38;12.80;;;3.30;;
80625;SDS011;69982;51.758;5.784;2023-07-02T10:52:05;10.20;;;3.30;;
80625;SDS011;69982;51.758;5.784;2023-07-02T10:54:43;9.40;;;3.10;;
80625;SDS011;69982;51.758;5.784;2023-07-02T10:57:12;12.30;;;3.40;;
80625;SDS011;69982;51.758;5.784;2023-07-02T10:59:40;8.80;;;2.90;;
80625;SDS011;69982;51.758;5.784;2023-07-02T11:02:06;10.40;;;3.50;;
80625;SDS011;69982;51.758;5.784;2023-07-02T11:04:35;9.40;;;2.60;;
80625;SDS011;69982;51.758;5.784;2023-07-02T11:07:02;10.90;;;3.50;;
80625;SDS011;69982;51.758;5.784;2023-07-02T11:09:28;8.20;;;2.60;;
80625;SDS011;69982;51.758;5.784;2023-07-02T11:11:56;12.80;;;3.30;;
80625;SDS011;69982;51.758;5.784;2023-07-02T11:14:34;8.60;;;3.50;;
80625;SDS011;69982;51.758;5.784;2023-07-02T11:17:05;12.60;;;3.40;;
80625;SDS011;69982;51.758;5.784;2023-07-02T11:19:33;14.10;;;3.70;;
80625;SDS011;69982;51.758;5.784;2023-07-02T11:22:00;11.60;;;3.20;;
80625;SDS011;69982;51.758;5.784;2023-07-02T11:26:58;10.30;;;3.30;;
80625;SDS011;69982;51.758;5.784;2023-07-02T11:29:25;8.70;;;2.90;;
80625;SDS011;69982;51.758;5.784;2023-07-02T11:31:52;11.00;;;3.40;;
80625;SDS011;69982;51.758;5.784;2023-07-02T11:34:19;11.70;;;3.50;;
80625;SDS011;69982;51.758;5.784;2023-07-02T11:36:47;8.10;;;3.00;;
80625;SDS011;69982;51.758;5.784;2023-07-02T11:39:15;13.30;;;3.40;;
80625;SDS011;69982;51.758;5.784;2023-07-02T11:41:44;12.80;;;3.40;;
80625;SDS011;69982;51.758;5.784;2023-07-02T11:44:11;9.80;;;3.90;;
80625;SDS011;69982;51.758;5.784;2023-07-02T11:46:38;9.00;;;3.30;;
80625;SDS011;69982;51.758;5.784;2023-07-02T11:49:04;8.10;;;2.70;;
80625;SDS011;69982;51.758;5.784;2023-07-02T11:51:31;7.80;;;2.70;;
80625;SDS011;69982;51.758;5.784;2023-07-02T11:53:57;11.10;;;2.80;;
80625;SDS011;69982;51.758;5.784;2023-07-02T11:56:23;7.90;;;2.40;;
80625;SDS011;69982;51.758;5.784;2023-07-02T11:58:50;10.70;;;2.90;;
80625;SDS011;69982;51.758;5.784;2023-07-02T12:01:17;9.10;;;2.70;;
80625;SDS011;69982;51.758;5.784;2023-07-02T12:03:44;13.00;;;3.20;;
80625;SDS011;69982;51.758;5.784;2023-07-02T12:06:11;9.70;;;2.50;;
80625;SDS011;69982;51.758;5.784;2023-07-02T12:08:37;11.40;;;2.70;;
80625;SDS011;69982;51.758;5.784;2023-07-02T12:11:03;8.60;;;2.50;;
80625;SDS011;69982;51.758;5.784;2023-07-02T12:13:30;9.80;;;3.30;;
80625;SDS011;69982;51.758;5.784;2023-07-02T12:15:56;8.10;;;2.60;;
80625;SDS011;69982;51.758;5.784;2023-07-02T12:18:22;8.60;;;2.80;;
80625;SDS011;69982;51.758;5.784;2023-07-02T12:20:49;9.20;;;2.90;;
80625;SDS011;69982;51.758;5.784;2023-07-02T12:23:15;10.10;;;2.50;;
80625;SDS011;69982;51.758;5.784;2023-07-02T12:25:42;10.10;;;2.10;;
80625;SDS011;69982;51.758;5.784;2023-07-02T12:28:08;9.40;;;2.50;;
80625;SDS011;69982;51.758;5.784;2023-07-02T12:30:36;6.50;;;1.90;;
80625;SDS011;69982;51.758;5.784;2023-07-02T12:33:02;7.40;;;1.90;;
80625;SDS011;69982;51.758;5.784;2023-07-02T12:35:29;8.70;;;2.30;;
80625;SDS011;69982;51.758;5.784;2023-07-02T12:37:56;10.20;;;2.20;;
80625;SDS011;69982;51.758;5.784;2023-07-02T12:40:22;7.00;;;2.20;;
80625;SDS011;69982;51.758;5.784;2023-07-02T12:42:48;6.10;;;2.10;;
80625;SDS011;69982;51.758;5.784;2023-07-02T12:45:17;6.90;;;2.00;;
80625;SDS011;69982;51.758;5.784;2023-07-02T12:47:46;7.70;;;2.50;;
80625;SDS011;69982;51.758;5.784;2023-07-02T12:50:12;7.80;;;2.30;;
80625;SDS011;69982;51.758;5.784;2023-07-02T12:52:39;9.10;;;2.30;;
80625;SDS011;69982;51.758;5.784;2023-07-02T12:55:05;10.00;;;2.20;;
80625;SDS011;69982;51.758;5.784;2023-07-02T12:57:32;6.60;;;2.10;;
80625;SDS011;69982;51.758;5.784;2023-07-02T12:59:58;7.30;;;2.20;;
80625;SDS011;69982;51.758;5.784;2023-07-02T13:02:25;6.60;;;1.60;;
80625;SDS011;69982;51.758;5.784;2023-07-02T13:04:51;8.00;;;1.90;;
80625;SDS011;69982;51.758;5.784;2023-07-02T13:07:18;9.40;;;2.60;;
80625;SDS011;69982;51.758;5.784;2023-07-02T13:09:44;6.60;;;1.90;;
80625;SDS011;69982;51.758;5.784;2023-07-02T13:12:11;5.60;;;1.70;;
80625;SDS011;69982;51.758;5.784;2023-07-02T13:14:38;6.20;;;1.40;;
80625;SDS011;69982;51.758;5.784;2023-07-02T13:17:04;6.90;;;2.20;;
80625;SDS011;69982;51.758;5.784;2023-07-02T13:19:31;9.80;;;2.30;;
80625;SDS011;69982;51.758;5.784;2023-07-02T13:21:58;7.70;;;2.60;;
80625;SDS011;69982;51.758;5.784;2023-07-02T13:24:27;8.10;;;2.30;;
80625;SDS011;69982;51.758;5.784;2023-07-02T13:26:59;8.20;;;2.10;;
80625;SDS011;69982;51.758;5.784;2023-07-02T13:29:28;6.20;;;2.00;;
80625;SDS011;69982;51.758;5.784;2023-07-02T13:31:55;7.00;;;1.90;;
80625;SDS011;69982;51.758;5.784;2023-07-02T13:34:21;7.70;;;2.10;;
80625;SDS011;69982;51.758;5.784;2023-07-02T13:36:48;7.90;;;2.00;;
80625;SDS011;69982;51.758;5.784;2023-07-02T13:39:14;6.60;;;2.20;;
80625;SDS011;69982;51.758;5.784;2023-07-02T13:41:40;7.50;;;2.10;;
80625;SDS011;69982;51.758;5.784;2023-07-02T13:44:07;8.30;;;2.00;;
80625;SDS011;69982;51.758;5.784;2023-07-02T13:46:33;6.20;;;2.10;;
80625;SDS011;69982;51.758;5.784;2023-07-02T13:49:00;10.90;;;2.50;;
80625;SDS011;69982;51.758;5.784;2023-07-02T13:51:27;9.50;;;2.60;;
80625;SDS011;69982;51.758;5.784;2023-07-02T13:53:53;7.80;;;2.10;;
80625;SDS011;69982;51.758;5.784;2023-07-02T13:56:20;9.10;;;2.70;;
80625;SDS011;69982;51.758;5.784;2023-07-02T13:59:07;8.80;;;2.30;;
80625;SDS011;69982;51.758;5.784;2023-07-02T14:01:33;9.00;;;2.40;;
80625;SDS011;69982;51.758;5.784;2023-07-02T14:04:01;9.90;;;2.80;;
80625;SDS011;69982;51.758;5.784;2023-07-02T14:06:29;9.30;;;2.10;;
80625;SDS011;69982;51.758;5.784;2023-07-02T14:08:55;9.90;;;2.80;;
80625;SDS011;69982;51.758;5.784;2023-07-02T14:11:22;8.30;;;2.20;;
80625;SDS011;69982;51.758;5.784;2023-07-02T14:13:51;8.50;;;2.10;;
80625;SDS011;69982;51.758;5.784;2023-07-02T14:16:17;8.10;;;2.10;;
80625;SDS011;69982;51.758;5.784;2023-07-02T14:18:44;6.90;;;2.30;;
80625;SDS011;69982;51.758;5.784;2023-07-02T14:21:10;6.30;;;2.00;;
80625;SDS011;69982;51.758;5.784;2023-07-02T14:23:37;10.30;;;2.00;;
80625;SDS011;69982;51.758;5.784;2023-07-02T14:26:04;7.90;;;2.20;;
80625;SDS011;69982;51.758;5.784;2023-07-02T14:28:30;9.70;;;2.50;;
80625;SDS011;69982;51.758;5.784;2023-07-02T14:30:58;9.00;;;2.60;;
80625;SDS011;69982;51.758;5.784;2023-07-02T14:33:27;8.20;;;2.30;;
80625;SDS011;69982;51.758;5.784;2023-07-02T14:35:54;7.30;;;2.20;;
80625;SDS011;69982;51.758;5.784;2023-07-02T14:38:21;10.50;;;2.30;;
80625;SDS011;69982;51.758;5.784;2023-07-02T14:40:48;7.40;;;1.90;;
80625;SDS011;69982;51.758;5.784;2023-07-02T14:43:15;9.00;;;2.20;;
80625;SDS011;69982;51.758;5.784;2023-07-02T14:45:44;10.30;;;2.50;;
80625;SDS011;69982;51.758;5.784;2023-07-02T14:48:13;8.70;;;2.10;;
80625;SDS011;69982;51.758;5.784;2023-07-02T14:50:44;8.00;;;2.50;;
80625;SDS011;69982;51.758;5.784;2023-07-02T14:53:20;8.90;;;2.30;;
80625;SDS011;69982;51.758;5.784;2023-07-02T14:55:47;7.00;;;2.40;;
80625;SDS011;69982;51.758;5.784;2023-07-02T14:58:15;9.70;;;2.50;;
80625;SDS011;69982;51.758;5.784;2023-07-02T15:00:47;9.60;;;2.30;;
80625;SDS011;69982;51.758;5.784;2023-07-02T15:03:14;9.50;;;2.70;;
80625;SDS011;69982;51.758;5.784;2023-07-02T15:05:41;8.90;;;2.60;;
80625;SDS011;69982;51.758;5.784;2023-07-02T15:08:08;8.80;;;2.20;;
80625;SDS011;69982;51.758;5.784;2023-07-02T15:10:38;7.60;;;2.30;;
80625;SDS011;69982;51.758;5.784;2023-07-02T15:13:06;8.40;;;2.60;;
80625;SDS011;69982;51.758;5.784;2023-07-02T15:17:59;6.90;;;2.00;;
80625;SDS011;69982;51.758;5.784;2023-07-02T15:20:26;6.50;;;2.10;;
80625;SDS011;69982;51.758;5.784;2023-07-02T15:22:52;6.50;;;2.30;;
80625;SDS011;69982;51.758;5.784;2023-07-02T15:25:19;9.80;;;2.20;;
80625;SDS011;69982;51.758;5.784;2023-07-02T15:27:46;8.00;;;1.70;;
80625;SDS011;69982;51.758;5.784;2023-07-02T15:30:13;9.60;;;2.60;;
80625;SDS011;69982;51.758;5.784;2023-07-02T15:32:40;9.20;;;3.20;;
80625;SDS011;69982;51.758;5.784;2023-07-02T15:35:06;9.10;;;2.80;;
80625;SDS011;69982;51.758;5.784;2023-07-02T15:37:32;9.60;;;2.50;;
80625;SDS011;69982;51.758;5.784;2023-07-02T15:39:59;10.10;;;2.30;;
80625;SDS011;69982;51.758;5.784;2023-07-02T15:42:25;13.10;;;2.90;;
80625;SDS011;69982;51.758;5.784;2023-07-02T15:44:56;9.80;;;3.30;;
80625;SDS011;69982;51.758;5.784;2023-07-02T15:47:23;7.80;;;2.30;;
80625;SDS011;69982;51.758;5.784;2023-07-02T15:49:50;8.30;;;2.60;;
80625;SDS011;69982;51.758;5.784;2023-07-02T15:52:17;8.90;;;3.30;;
80625;SDS011;69982;51.758;5.784;2023-07-02T15:54:43;10.40;;;3.10;;
80625;SDS011;69982;51.758;5.784;2023-07-02T15:57:10;8.20;;;2.40;;